MSVA4: Spavinaw Creek nr Maysville AR

Data processed at Wed May 22 2019 23:30


All information presented herein is the property of the government of the United States of America and may be revised or deleted at any time without prior notice.
Dissemination of this information without the expressed written consent of the Public Affairs Office, Tulsa District U.S. Army Corps of Engineers is strictly prohibited.
These data are gathered electronically and, as presented, have not undergone any form of quality control. These data are not guaranteed to be valid or correct.
Go to home page.
Go to station list.
Go to home page.

Downstream station:


Previous Day
Next Day
Current Day
    
SHEF ID:       MSVA4     Spavinaw Creek near Maysville, A
STATION TYPE:  

               PRECIP     STAGE  RIV-FLOW  BAT-LOAD
                   in        ft       cfs      volt
              Ccp-Rev   Ccp-Rev   Ccp-Rev   Ccp-Rev
(US/Central)
05/22 00:00      0.00     10.12      1195     12.41
05/22 01:00      0.00     10.01      1119     12.41
05/22 02:00      0.00      9.91      1049     12.41
05/22 03:00      0.00      9.82       984     12.33
05/22 04:00      0.00      9.71       903     12.33
05/22 05:00      0.00      9.64       854     12.33
05/22 06:00      0.00      9.57       806     12.33
05/22 07:00      0.00      9.49       747     12.33
05/22 08:00      0.00      9.43       703     12.41
05/22 09:00      0.00      9.36       654     12.73
05/22 10:00      0.00      9.30       613     13.21
05/22 11:00      0.00      9.25       576     13.21
05/22 12:00      0.00      9.20       539     13.37
05/22 13:00      0.00      9.15       503     13.37
05/22 14:00      0.00      9.10       470     13.37
05/22 15:00      0.00      9.06       444     13.29
05/22 16:00      0.00      9.02       418     13.29
05/22 17:00      0.00      8.97       388     13.05
05/22 18:00      0.00      8.93       363     12.97
05/22 19:00      0.00      8.89       340     12.65
05/22 20:00      0.00      8.85       320     12.57
05/22 21:00      0.00      8.82       306     12.49
05/22 22:00      0.00      8.79       291     12.41
05/22 23:00      ----      ----      ----      ----